createdAt,value
2023-05-15T00:04:38.413Z,3.35
2023-05-15T00:09:39.160Z,4.07
2023-05-15T00:14:39.855Z,3.70
2023-05-15T00:19:41.850Z,3.83
2023-05-15T00:24:42.634Z,3.75
2023-05-15T00:29:43.401Z,3.63
2023-05-15T00:34:45.494Z,3.53
2023-05-15T00:39:46.199Z,3.90
2023-05-15T00:44:48.140Z,4.00
2023-05-15T00:49:50.654Z,3.85
2023-05-15T00:54:53.132Z,3.90
2023-05-15T00:59:53.921Z,4.15
2023-05-15T01:04:56.048Z,3.55
2023-05-15T01:09:57.301Z,3.95
2023-05-15T01:14:58.045Z,3.47
2023-05-15T01:20:01.689Z,3.83
2023-05-15T01:25:38.781Z,3.58
2023-05-15T01:30:44.472Z,3.55
2023-05-15T01:35:48.174Z,3.85
2023-05-15T01:40:49.681Z,3.50
2023-05-15T01:45:51.762Z,3.13
2023-05-15T01:50:55.560Z,3.60
2023-05-15T01:55:56.600Z,3.75
2023-05-15T02:01:00.147Z,3.83
2023-05-15T02:06:01.670Z,3.45
2023-05-15T02:11:04.199Z,4.00
2023-05-15T02:16:06.705Z,4.32
2023-05-15T02:21:07.537Z,3.88
2023-05-15T02:26:21.442Z,4.00
2023-05-15T02:31:29.737Z,4.10
2023-05-15T02:36:34.689Z,3.88
2023-05-15T02:41:37.555Z,3.90
2023-05-15T02:46:41.414Z,4.15
2023-05-15T02:51:42.129Z,4.32
2023-05-15T02:56:42.789Z,4.32
2023-05-15T03:01:44.862Z,4.18
2023-05-15T03:06:45.685Z,4.32
2023-05-15T03:11:46.346Z,4.63
2023-05-15T03:16:48.462Z,4.63
2023-05-15T03:21:49.182Z,4.13
2023-05-15T03:26:49.875Z,4.57
2023-05-15T03:31:51.974Z,4.57
2023-05-15T03:36:52.647Z,3.47
2023-05-15T03:41:53.371Z,3.72
2023-05-15T03:46:57.741Z,3.72
2023-05-15T03:51:58.619Z,3.65
2023-05-15T03:56:59.496Z,4.10
2023-05-15T04:02:04.830Z,4.10
2023-05-15T04:07:07.153Z,3.90
2023-05-15T04:12:08.167Z,3.55
2023-05-15T04:17:10.194Z,3.85
2023-05-15T04:22:10.882Z,3.72
2023-05-15T04:27:11.638Z,4.40
2023-05-15T04:32:13.650Z,3.53
2023-05-15T04:37:14.419Z,4.05
2023-05-15T04:42:16.217Z,4.00
2023-05-15T04:47:18.283Z,3.88
2023-05-15T04:52:19.047Z,4.50
2023-05-15T04:57:19.904Z,4.57
2023-05-15T05:02:23.349Z,4.45
2023-05-15T05:07:24.073Z,4.53
2023-05-15T05:12:26.049Z,5.10
2023-05-15T05:17:30.764Z,4.75
2023-05-15T05:22:31.766Z,5.38
2023-05-15T05:27:32.423Z,6.35
2023-05-15T05:32:38.112Z,5.53
2023-05-15T05:37:41.029Z,4.90
2023-05-15T05:42:42.352Z,5.93
2023-05-15T05:47:44.405Z,5.68
2023-05-15T05:52:45.330Z,6.72
2023-05-15T05:57:46.155Z,5.38
2023-05-15T06:02:48.491Z,6.18
2023-05-15T06:07:49.296Z,5.63
2023-05-15T06:12:50.294Z,6.28
2023-05-15T06:17:52.306Z,6.53
2023-05-15T06:22:53.190Z,6.18
2023-05-15T06:27:53.981Z,6.18
2023-05-15T06:32:56.104Z,6.50
2023-05-15T06:37:58.551Z,6.10
2023-05-15T06:42:59.719Z,6.20
2023-05-15T06:48:02.099Z,5.50
2023-05-15T06:53:02.928Z,5.32
2023-05-15T06:58:03.623Z,5.60
2023-05-15T07:03:06.308Z,6.55
2023-05-15T07:08:07.089Z,6.40
2023-05-15T07:13:07.793Z,5.45
2023-05-15T07:18:09.863Z,6.15
2023-05-15T07:23:10.684Z,5.68
2023-05-15T07:28:11.758Z,5.05
2023-05-15T07:33:13.863Z,5.68
2023-05-15T07:38:14.706Z,5.90
2023-05-15T07:43:15.393Z,5.72
2023-05-15T07:48:18.529Z,5.80
2023-05-15T07:53:19.729Z,4.95
2023-05-15T07:58:20.705Z,5.78
2023-05-15T08:03:23.091Z,5.38
2023-05-15T08:08:23.948Z,5.20
2023-05-15T08:13:24.709Z,5.35
2023-05-15T08:18:26.895Z,5.63
2023-05-15T08:23:27.647Z,5.20
2023-05-15T08:28:28.357Z,5.70
2023-05-15T08:33:30.404Z,6.18
2023-05-15T08:38:31.410Z,6.15
2023-05-15T08:43:36.716Z,5.82
2023-05-15T08:48:42.475Z,6.35
2023-05-15T08:53:44.033Z,5.68
2023-05-15T08:58:45.606Z,5.95
2023-05-15T09:03:47.728Z,6.05
2023-05-15T09:08:51.072Z,6.20
2023-05-15T09:13:51.937Z,6.10
2023-05-15T09:18:54.865Z,5.95
2023-05-15T09:23:57.162Z,6.72
2023-05-15T09:29:05.644Z,7.07
2023-05-15T09:34:09.610Z,7.05
2023-05-15T09:39:10.408Z,6.55
2023-05-15T09:44:21.574Z,6.03
2023-05-15T09:49:24.152Z,6.53
2023-05-15T09:54:27.407Z,6.03
2023-05-15T09:59:28.101Z,5.80
2023-05-15T10:04:35.736Z,6.30
2023-05-15T10:09:36.437Z,5.90
2023-05-15T10:14:37.170Z,6.22
2023-05-15T10:19:50.480Z,5.70
2023-05-15T10:25:03.831Z,4.90
2023-05-15T10:30:05.560Z,5.53
2023-05-15T10:35:10.664Z,5.88
2023-05-15T10:40:12.460Z,5.20
2023-05-15T10:45:13.434Z,6.13
2023-05-15T10:50:16.081Z,5.82
2023-05-15T10:55:18.559Z,5.13
2023-05-15T11:00:26.945Z,4.78
2023-05-15T11:05:31.162Z,5.30
2023-05-15T11:10:39.203Z,4.05
2023-05-15T11:15:44.311Z,5.18
2023-05-15T11:21:10.754Z,4.60
2023-05-15T11:26:14.707Z,4.10
2023-05-15T11:31:16.007Z,4.25
2023-05-15T11:36:18.508Z,3.95
2023-05-15T11:41:21.702Z,4.50
2023-05-15T11:46:22.941Z,3.85
2023-05-15T11:51:26.231Z,4.85
2023-05-15T11:56:29.245Z,5.07
2023-05-15T12:01:40.158Z,5.03
2023-05-15T12:06:42.701Z,6.75
2023-05-15T12:11:49.532Z,6.25
2023-05-15T12:16:53.378Z,7.63
2023-05-15T12:21:55.573Z,6.63
2023-05-15T12:26:57.614Z,7.75
2023-05-15T12:31:58.712Z,7.22
2023-05-15T12:37:00.952Z,7.53
2023-05-15T12:42:01.662Z,8.07
2023-05-15T12:47:02.462Z,6.95
2023-05-15T12:52:10.662Z,7.07
2023-05-15T12:57:12.760Z,6.43
2023-05-15T13:02:14.387Z,5.55
2023-05-15T13:07:17.696Z,4.90
2023-05-15T13:12:20.209Z,5.28
2023-05-15T13:17:23.274Z,5.13
2023-05-15T13:22:25.741Z,6.47
2023-05-15T13:27:27.210Z,8.07
2023-05-15T13:32:28.021Z,7.18
2023-05-15T13:37:30.063Z,8.65
2023-05-15T13:42:30.780Z,7.82
2023-05-15T13:47:31.505Z,10.48
2023-05-15T13:52:33.527Z,10.07
2023-05-15T13:57:34.213Z,11.25
2023-05-15T14:02:35.036Z,13.40
2023-05-15T14:07:37.072Z,10.95
2023-05-15T14:12:38.209Z,10.02
2023-05-15T14:17:39.564Z,8.85
2023-05-15T14:22:41.888Z,9.05
2023-05-15T14:27:42.581Z,8.80
2023-05-15T14:32:43.459Z,7.93
2023-05-15T14:37:45.618Z,8.45
2023-05-15T14:42:46.273Z,6.45
2023-05-15T14:47:47.057Z,6.63
2023-05-15T14:53:12.196Z,6.15
2023-05-15T14:58:12.871Z,6.65
2023-05-15T15:03:13.646Z,6.10
2023-05-15T15:08:15.800Z,5.38
2023-05-15T15:13:17.035Z,5.88
2023-05-15T15:18:17.742Z,4.82
2023-05-15T15:23:19.815Z,4.38
2023-05-15T15:28:20.559Z,4.25
2023-05-15T15:33:21.279Z,4.10
2023-05-15T15:38:23.449Z,4.72
2023-05-15T15:43:24.107Z,4.32
2023-05-15T15:48:24.790Z,3.97
2023-05-15T15:53:27.009Z,4.70
2023-05-15T15:58:27.700Z,5.30
2023-05-15T16:03:28.591Z,5.43
2023-05-15T16:08:30.666Z,5.88
2023-05-15T16:13:31.425Z,6.70
2023-05-15T16:18:32.092Z,6.03
2023-05-15T16:23:35.995Z,7.53
2023-05-15T16:28:36.836Z,7.10
2023-05-15T16:33:37.992Z,6.90
2023-05-15T16:38:40.246Z,6.70
2023-05-15T16:43:40.931Z,7.28
2023-05-15T16:48:41.625Z,7.15
2023-05-15T16:53:44.323Z,7.53
2023-05-15T16:58:45.024Z,11.05
2023-05-15T17:03:45.916Z,5.57
2023-05-15T17:08:48.213Z,6.00
2023-05-15T17:13:48.904Z,6.55
2023-05-15T17:18:49.723Z,7.10
2023-05-15T17:23:53.274Z,8.45
2023-05-15T17:28:54.063Z,7.30
2023-05-15T17:33:54.749Z,7.22
2023-05-15T17:38:56.800Z,7.15
2023-05-15T17:43:57.644Z,7.63
2023-05-15T17:48:58.308Z,8.73
2023-05-15T17:54:00.377Z,9.02
2023-05-15T17:59:01.225Z,8.73
2023-05-15T18:04:01.930Z,9.45
2023-05-15T18:09:05.145Z,9.68
2023-05-15T18:14:06.168Z,8.93
2023-05-15T18:19:07.169Z,9.93
2023-05-15T18:24:09.432Z,8.40
2023-05-15T18:29:34.952Z,6.50
2023-05-15T18:34:35.690Z,7.30
2023-05-15T18:39:39.638Z,6.97
2023-05-15T18:44:40.341Z,7.30
2023-05-15T18:49:41.091Z,7.53
2023-05-15T18:54:43.111Z,8.10
2023-05-15T18:59:44.497Z,8.07
2023-05-15T19:04:45.330Z,8.38
2023-05-15T19:09:47.426Z,8.55
2023-05-15T19:14:48.201Z,9.30
2023-05-15T19:19:48.877Z,9.60
2023-05-15T19:24:51.031Z,11.07
2023-05-15T19:29:52.037Z,10.55
2023-05-15T19:34:52.738Z,11.15
2023-05-15T19:39:55.792Z,11.77
2023-05-15T19:44:56.492Z,13.00
2023-05-15T19:49:57.450Z,13.70
2023-05-15T19:54:59.486Z,14.05
2023-05-15T20:00:00.224Z,14.55
2023-05-15T20:05:01.218Z,13.85
2023-05-15T20:10:03.379Z,14.90
2023-05-15T20:15:04.296Z,15.93
2023-05-15T20:20:08.278Z,15.40
2023-05-15T20:25:11.464Z,15.13
2023-05-15T20:30:12.825Z,15.32
2023-05-15T20:35:13.509Z,17.50
2023-05-15T20:40:16.354Z,18.35
2023-05-15T20:45:17.194Z,17.58
2023-05-15T20:50:19.046Z,17.63
2023-05-15T20:55:21.725Z,16.88
2023-05-15T21:00:22.461Z,16.88
2023-05-15T21:05:23.489Z,15.43
2023-05-15T21:10:25.992Z,17.45
2023-05-15T21:15:26.948Z,14.63
2023-05-15T21:20:27.905Z,13.52
2023-05-15T21:25:30.114Z,12.55
2023-05-15T21:30:30.914Z,12.15
2023-05-15T21:35:31.797Z,9.23
2023-05-15T21:40:34.500Z,8.38
2023-05-15T21:45:35.173Z,8.00
2023-05-15T21:50:36.053Z,8.02
2023-05-15T21:55:38.102Z,8.10
2023-05-15T22:00:40.358Z,7.45
2023-05-15T22:05:41.055Z,7.70
2023-05-15T22:10:43.292Z,7.22
2023-05-15T22:15:44.279Z,7.72
2023-05-15T22:20:45.497Z,7.20
2023-05-15T22:25:49.083Z,7.28
2023-05-15T22:30:50.061Z,6.80
2023-05-15T22:35:51.493Z,6.40
2023-05-15T22:40:53.923Z,6.25
2023-05-15T22:45:55.064Z,6.82
2023-05-15T22:50:56.297Z,6.45
2023-05-15T22:55:58.357Z,7.50
2023-05-15T23:00:59.772Z,6.80
2023-05-15T23:06:00.453Z,6.80
2023-05-15T23:11:03.555Z,7.25
2023-05-15T23:16:04.392Z,7.07
2023-05-15T23:21:05.134Z,7.18
2023-05-15T23:26:07.193Z,7.82
2023-05-15T23:31:08.120Z,7.15
2023-05-15T23:36:09.083Z,6.82
2023-05-15T23:41:11.061Z,7.13
2023-05-15T23:46:11.807Z,7.70
2023-05-15T23:51:12.560Z,7.10
2023-05-15T23:56:14.575Z,8.07
